sensor_id;sensor_type;location;lat;lon;timestamp;P1;durP1;ratioP1;P2;durP2;ratioP2
46713;SDS011;32445;51.376;10.874;2022-07-23T00:00:37;4.30;;;3.77;;
46713;SDS011;32445;51.376;10.874;2022-07-23T00:03:38;6.77;;;3.93;;
46713;SDS011;32445;51.376;10.874;2022-07-23T00:06:38;6.03;;;4.03;;
46713;SDS011;32445;51.376;10.874;2022-07-23T00:09:38;3.60;;;3.40;;
46713;SDS011;32445;51.376;10.874;2022-07-23T00:12:39;3.93;;;3.63;;
46713;SDS011;32445;51.376;10.874;2022-07-23T00:15:39;4.20;;;3.80;;
46713;SDS011;32445;51.376;10.874;2022-07-23T00:18:40;6.20;;;4.60;;
46713;SDS011;32445;51.376;10.874;2022-07-23T00:21:40;5.83;;;4.17;;
46713;SDS011;32445;51.376;10.874;2022-07-23T00:24:40;5.37;;;4.33;;
46713;SDS011;32445;51.376;10.874;2022-07-23T00:27:41;4.60;;;4.20;;
46713;SDS011;32445;51.376;10.874;2022-07-23T00:30:41;4.77;;;4.40;;
46713;SDS011;32445;51.376;10.874;2022-07-23T00:33:42;5.90;;;3.93;;
46713;SDS011;32445;51.376;10.874;2022-07-23T00:36:42;5.37;;;4.00;;
46713;SDS011;32445;51.376;10.874;2022-07-23T00:39:42;3.60;;;3.20;;
46713;SDS011;32445;51.376;10.874;2022-07-23T00:42:43;4.27;;;3.87;;
46713;SDS011;32445;51.376;10.874;2022-07-23T00:45:43;4.70;;;4.30;;
46713;SDS011;32445;51.376;10.874;2022-07-23T00:48:44;9.07;;;4.47;;
46713;SDS011;32445;51.376;10.874;2022-07-23T00:51:44;6.10;;;5.43;;
46713;SDS011;32445;51.376;10.874;2022-07-23T00:54:44;5.27;;;4.87;;
46713;SDS011;32445;51.376;10.874;2022-07-23T00:57:45;6.00;;;5.57;;
46713;SDS011;32445;51.376;10.874;2022-07-23T01:03:47;4.83;;;4.43;;
46713;SDS011;32445;51.376;10.874;2022-07-23T01:06:47;9.30;;;4.93;;
46713;SDS011;32445;51.376;10.874;2022-07-23T01:09:47;4.87;;;4.50;;
46713;SDS011;32445;51.376;10.874;2022-07-23T01:12:49;4.82;;;4.40;;
46713;SDS011;32445;51.376;10.874;2022-07-23T01:15:50;3.97;;;3.77;;
46713;SDS011;32445;51.376;10.874;2022-07-23T01:18:50;5.33;;;4.83;;
46713;SDS011;32445;51.376;10.874;2022-07-23T01:21:51;5.93;;;4.87;;
46713;SDS011;32445;51.376;10.874;2022-07-23T01:24:53;5.43;;;4.90;;
46713;SDS011;32445;51.376;10.874;2022-07-23T01:27:53;4.30;;;4.00;;
46713;SDS011;32445;51.376;10.874;2022-07-23T01:30:54;7.27;;;5.07;;
46713;SDS011;32445;51.376;10.874;2022-07-23T01:33:54;4.83;;;4.53;;
46713;SDS011;32445;51.376;10.874;2022-07-23T01:36:54;5.77;;;5.20;;
46713;SDS011;32445;51.376;10.874;2022-07-23T01:39:55;5.23;;;4.80;;
46713;SDS011;32445;51.376;10.874;2022-07-23T01:42:55;5.30;;;4.90;;
46713;SDS011;32445;51.376;10.874;2022-07-23T01:45:56;6.93;;;3.87;;
46713;SDS011;32445;51.376;10.874;2022-07-23T01:48:56;3.83;;;3.53;;
46713;SDS011;32445;51.376;10.874;2022-07-23T01:51:56;4.17;;;3.87;;
46713;SDS011;32445;51.376;10.874;2022-07-23T01:54:59;4.63;;;4.30;;
46713;SDS011;32445;51.376;10.874;2022-07-23T01:58:00;3.80;;;3.43;;
46713;SDS011;32445;51.376;10.874;2022-07-23T02:01:01;5.88;;;3.42;;
46713;SDS011;32445;51.376;10.874;2022-07-23T02:04:01;3.70;;;3.50;;
46713;SDS011;32445;51.376;10.874;2022-07-23T02:07:02;7.47;;;4.37;;
46713;SDS011;32445;51.376;10.874;2022-07-23T02:10:04;4.22;;;3.63;;
46713;SDS011;32445;51.376;10.874;2022-07-23T02:13:05;3.95;;;3.65;;
46713;SDS011;32445;51.376;10.874;2022-07-23T02:16:05;4.57;;;3.30;;
46713;SDS011;32445;51.376;10.874;2022-07-23T02:19:06;3.87;;;3.57;;
46713;SDS011;32445;51.376;10.874;2022-07-23T02:22:06;5.47;;;3.97;;
46713;SDS011;32445;51.376;10.874;2022-07-23T02:25:07;4.93;;;3.60;;
46713;SDS011;32445;51.376;10.874;2022-07-23T02:28:08;3.55;;;3.25;;
46713;SDS011;32445;51.376;10.874;2022-07-23T02:31:08;5.77;;;5.27;;
46713;SDS011;32445;51.376;10.874;2022-07-23T02:34:08;5.73;;;5.23;;
46713;SDS011;32445;51.376;10.874;2022-07-23T02:37:11;5.55;;;5.15;;
46713;SDS011;32445;51.376;10.874;2022-07-23T02:40:11;5.17;;;4.53;;
46713;SDS011;32445;51.376;10.874;2022-07-23T02:43:12;4.20;;;3.90;;
46713;SDS011;32445;51.376;10.874;2022-07-23T02:46:12;4.73;;;3.67;;
46713;SDS011;32445;51.376;10.874;2022-07-23T02:49:13;5.53;;;5.03;;
46713;SDS011;32445;51.376;10.874;2022-07-23T02:52:13;7.40;;;5.57;;
46713;SDS011;32445;51.376;10.874;2022-07-23T02:55:13;7.37;;;6.20;;
46713;SDS011;32445;51.376;10.874;2022-07-23T02:58:14;6.97;;;6.07;;
46713;SDS011;32445;51.376;10.874;2022-07-23T03:01:14;9.93;;;5.67;;
46713;SDS011;32445;51.376;10.874;2022-07-23T03:04:15;9.93;;;7.27;;
46713;SDS011;32445;51.376;10.874;2022-07-23T03:07:15;9.50;;;6.10;;
46713;SDS011;32445;51.376;10.874;2022-07-23T03:10:16;8.50;;;5.95;;
46713;SDS011;32445;51.376;10.874;2022-07-23T03:13:17;8.83;;;5.00;;
46713;SDS011;32445;51.376;10.874;2022-07-23T03:16:17;7.43;;;6.17;;
46713;SDS011;32445;51.376;10.874;2022-07-23T03:19:18;8.73;;;5.93;;
46713;SDS011;32445;51.376;10.874;2022-07-23T03:22:18;15.00;;;5.70;;
46713;SDS011;32445;51.376;10.874;2022-07-23T03:25:18;8.40;;;6.27;;
46713;SDS011;32445;51.376;10.874;2022-07-23T03:28:19;7.30;;;5.50;;
46713;SDS011;32445;51.376;10.874;2022-07-23T03:31:19;11.13;;;6.13;;
46713;SDS011;32445;51.376;10.874;2022-07-23T03:34:19;5.87;;;5.30;;
46713;SDS011;32445;51.376;10.874;2022-07-23T03:37:20;5.23;;;4.20;;
46713;SDS011;32445;51.376;10.874;2022-07-23T03:40:20;7.27;;;5.40;;
46713;SDS011;32445;51.376;10.874;2022-07-23T03:43:20;8.53;;;4.87;;
46713;SDS011;32445;51.376;10.874;2022-07-23T03:46:21;6.37;;;5.73;;
46713;SDS011;32445;51.376;10.874;2022-07-23T03:49:21;6.07;;;4.63;;
46713;SDS011;32445;51.376;10.874;2022-07-23T03:52:21;5.43;;;4.90;;
46713;SDS011;32445;51.376;10.874;2022-07-23T03:55:22;7.60;;;5.40;;
46713;SDS011;32445;51.376;10.874;2022-07-23T03:58:22;5.37;;;4.73;;
46713;SDS011;32445;51.376;10.874;2022-07-23T04:01:23;6.10;;;5.50;;
46713;SDS011;32445;51.376;10.874;2022-07-23T04:04:23;8.90;;;5.43;;
46713;SDS011;32445;51.376;10.874;2022-07-23T04:07:23;5.43;;;5.03;;
46713;SDS011;32445;51.376;10.874;2022-07-23T04:10:24;5.80;;;5.37;;
46713;SDS011;32445;51.376;10.874;2022-07-23T04:13:24;6.03;;;5.37;;
46713;SDS011;32445;51.376;10.874;2022-07-23T04:16:24;5.73;;;5.23;;
46713;SDS011;32445;51.376;10.874;2022-07-23T04:19:25;4.87;;;4.47;;
46713;SDS011;32445;51.376;10.874;2022-07-23T04:22:26;6.95;;;5.22;;
46713;SDS011;32445;51.376;10.874;2022-07-23T04:25:26;5.37;;;4.87;;
46713;SDS011;32445;51.376;10.874;2022-07-23T04:28:27;6.50;;;5.63;;
46713;SDS011;32445;51.376;10.874;2022-07-23T04:31:27;6.90;;;5.23;;
46713;SDS011;32445;51.376;10.874;2022-07-23T04:34:28;5.87;;;5.37;;
46713;SDS011;32445;51.376;10.874;2022-07-23T04:37:28;7.03;;;5.63;;
46713;SDS011;32445;51.376;10.874;2022-07-23T04:40:29;9.43;;;5.70;;
46713;SDS011;32445;51.376;10.874;2022-07-23T04:43:30;7.82;;;7.13;;
46713;SDS011;32445;51.376;10.874;2022-07-23T04:46:30;7.23;;;6.63;;
46713;SDS011;32445;51.376;10.874;2022-07-23T04:49:30;6.27;;;5.77;;
46713;SDS011;32445;51.376;10.874;2022-07-23T04:52:31;6.10;;;5.47;;
46713;SDS011;32445;51.376;10.874;2022-07-23T04:55:31;6.33;;;5.83;;
46713;SDS011;32445;51.376;10.874;2022-07-23T04:58:31;8.40;;;6.20;;
46713;SDS011;32445;51.376;10.874;2022-07-23T05:01:32;7.60;;;7.00;;
46713;SDS011;32445;51.376;10.874;2022-07-23T05:04:32;7.37;;;6.70;;
46713;SDS011;32445;51.376;10.874;2022-07-23T05:07:33;8.80;;;7.00;;
46713;SDS011;32445;51.376;10.874;2022-07-23T05:10:33;6.87;;;5.93;;
46713;SDS011;32445;51.376;10.874;2022-07-23T05:13:34;7.40;;;6.80;;
46713;SDS011;32445;51.376;10.874;2022-07-23T05:16:34;7.60;;;6.97;;
46713;SDS011;32445;51.376;10.874;2022-07-23T05:19:35;7.03;;;6.53;;
46713;SDS011;32445;51.376;10.874;2022-07-23T05:22:35;9.53;;;8.73;;
46713;SDS011;32445;51.376;10.874;2022-07-23T05:25:36;6.37;;;5.97;;
46713;SDS011;32445;51.376;10.874;2022-07-23T05:28:36;6.50;;;5.90;;
46713;SDS011;32445;51.376;10.874;2022-07-23T05:31:37;8.03;;;7.37;;
46713;SDS011;32445;51.376;10.874;2022-07-23T05:34:37;6.53;;;5.93;;
46713;SDS011;32445;51.376;10.874;2022-07-23T05:37:37;6.93;;;6.37;;
46713;SDS011;32445;51.376;10.874;2022-07-23T05:40:38;6.33;;;5.77;;
46713;SDS011;32445;51.376;10.874;2022-07-23T05:43:38;5.77;;;5.33;;
46713;SDS011;32445;51.376;10.874;2022-07-23T05:46:38;5.87;;;5.47;;
46713;SDS011;32445;51.376;10.874;2022-07-23T05:49:39;5.87;;;5.37;;
46713;SDS011;32445;51.376;10.874;2022-07-23T05:52:39;5.83;;;5.43;;
46713;SDS011;32445;51.376;10.874;2022-07-23T05:55:39;6.03;;;5.47;;
46713;SDS011;32445;51.376;10.874;2022-07-23T05:58:40;5.77;;;4.77;;
46713;SDS011;32445;51.376;10.874;2022-07-23T06:01:40;5.43;;;5.07;;
46713;SDS011;32445;51.376;10.874;2022-07-23T06:04:41;6.03;;;5.63;;
46713;SDS011;32445;51.376;10.874;2022-07-23T06:07:42;5.22;;;4.72;;
46713;SDS011;32445;51.376;10.874;2022-07-23T06:10:42;6.73;;;5.87;;
46713;SDS011;32445;51.376;10.874;2022-07-23T06:13:42;5.10;;;4.70;;
46713;SDS011;32445;51.376;10.874;2022-07-23T06:16:43;5.10;;;4.70;;
46713;SDS011;32445;51.376;10.874;2022-07-23T06:19:43;4.93;;;4.43;;
46713;SDS011;32445;51.376;10.874;2022-07-23T06:22:44;6.20;;;5.60;;
46713;SDS011;32445;51.376;10.874;2022-07-23T06:25:44;5.43;;;4.90;;
46713;SDS011;32445;51.376;10.874;2022-07-23T06:28:44;4.87;;;4.47;;
46713;SDS011;32445;51.376;10.874;2022-07-23T06:31:45;6.93;;;5.50;;
46713;SDS011;32445;51.376;10.874;2022-07-23T06:34:45;6.60;;;6.10;;
46713;SDS011;32445;51.376;10.874;2022-07-23T06:37:45;6.03;;;5.53;;
46713;SDS011;32445;51.376;10.874;2022-07-23T06:40:46;4.90;;;4.50;;
46713;SDS011;32445;51.376;10.874;2022-07-23T06:43:46;7.70;;;5.57;;
46713;SDS011;32445;51.376;10.874;2022-07-23T06:46:46;10.10;;;4.60;;
46713;SDS011;32445;51.376;10.874;2022-07-23T06:49:47;6.10;;;5.60;;
46713;SDS011;32445;51.376;10.874;2022-07-23T06:52:47;6.07;;;4.73;;
46713;SDS011;32445;51.376;10.874;2022-07-23T06:55:47;5.53;;;5.23;;
46713;SDS011;32445;51.376;10.874;2022-07-23T06:58:48;5.83;;;5.27;;
46713;SDS011;32445;51.376;10.874;2022-07-23T07:01:48;5.40;;;5.00;;
46713;SDS011;32445;51.376;10.874;2022-07-23T07:04:49;4.70;;;4.40;;
46713;SDS011;32445;51.376;10.874;2022-07-23T07:07:49;5.32;;;4.93;;
46713;SDS011;32445;51.376;10.874;2022-07-23T07:10:50;5.87;;;5.47;;
46713;SDS011;32445;51.376;10.874;2022-07-23T07:13:51;5.20;;;4.77;;
46713;SDS011;32445;51.376;10.874;2022-07-23T07:16:51;4.93;;;4.63;;
46713;SDS011;32445;51.376;10.874;2022-07-23T07:19:51;6.93;;;5.50;;
46713;SDS011;32445;51.376;10.874;2022-07-23T07:22:52;5.63;;;5.13;;
46713;SDS011;32445;51.376;10.874;2022-07-23T07:25:52;5.20;;;4.80;;
46713;SDS011;32445;51.376;10.874;2022-07-23T07:28:52;5.30;;;5.00;;
46713;SDS011;32445;51.376;10.874;2022-07-23T07:31:53;9.23;;;5.00;;
46713;SDS011;32445;51.376;10.874;2022-07-23T07:34:54;6.10;;;5.60;;
46713;SDS011;32445;51.376;10.874;2022-07-23T07:37:54;5.93;;;5.43;;
46713;SDS011;32445;51.376;10.874;2022-07-23T07:40:54;6.57;;;6.13;;
46713;SDS011;32445;51.376;10.874;2022-07-23T07:43:55;6.07;;;5.57;;
46713;SDS011;32445;51.376;10.874;2022-07-23T07:46:55;7.53;;;6.83;;
46713;SDS011;32445;51.376;10.874;2022-07-23T07:49:55;6.20;;;5.80;;
46713;SDS011;32445;51.376;10.874;2022-07-23T07:52:56;6.33;;;5.73;;
46713;SDS011;32445;51.376;10.874;2022-07-23T07:55:56;5.73;;;5.33;;
46713;SDS011;32445;51.376;10.874;2022-07-23T07:58:57;6.77;;;6.23;;
46713;SDS011;32445;51.376;10.874;2022-07-23T08:01:58;6.82;;;6.30;;
46713;SDS011;32445;51.376;10.874;2022-07-23T08:04:58;5.97;;;5.47;;
46713;SDS011;32445;51.376;10.874;2022-07-23T08:08:01;5.97;;;5.57;;
46713;SDS011;32445;51.376;10.874;2022-07-23T08:11:02;9.68;;;7.43;;
46713;SDS011;32445;51.376;10.874;2022-07-23T08:14:02;7.63;;;7.03;;
46713;SDS011;32445;51.376;10.874;2022-07-23T08:17:03;7.30;;;6.70;;
46713;SDS011;32445;51.376;10.874;2022-07-23T08:20:04;10.17;;;6.13;;
46713;SDS011;32445;51.376;10.874;2022-07-23T08:23:06;6.78;;;6.28;;
46713;SDS011;32445;51.376;10.874;2022-07-23T08:26:08;7.30;;;6.80;;
46713;SDS011;32445;51.376;10.874;2022-07-23T08:29:08;7.60;;;7.10;;
46713;SDS011;32445;51.376;10.874;2022-07-23T08:32:08;7.37;;;6.83;;
46713;SDS011;32445;51.376;10.874;2022-07-23T08:35:09;7.77;;;7.07;;
46713;SDS011;32445;51.376;10.874;2022-07-23T08:38:09;6.93;;;6.37;;
46713;SDS011;32445;51.376;10.874;2022-07-23T08:41:10;6.88;;;6.28;;
46713;SDS011;32445;51.376;10.874;2022-07-23T08:44:11;6.80;;;6.30;;
46713;SDS011;32445;51.376;10.874;2022-07-23T08:47:12;7.70;;;6.60;;
46713;SDS011;32445;51.376;10.874;2022-07-23T08:50:15;6.43;;;6.00;;
46713;SDS011;32445;51.376;10.874;2022-07-23T08:53:16;7.57;;;6.97;;
46713;SDS011;32445;51.376;10.874;2022-07-23T08:56:18;7.95;;;7.35;;
46713;SDS011;32445;51.376;10.874;2022-07-23T08:59:18;7.83;;;7.33;;
46713;SDS011;32445;51.376;10.874;2022-07-23T09:02:18;8.13;;;7.37;;
46713;SDS011;32445;51.376;10.874;2022-07-23T09:05:19;7.37;;;6.77;;
46713;SDS011;32445;51.376;10.874;2022-07-23T09:08:20;6.35;;;5.95;;
46713;SDS011;32445;51.376;10.874;2022-07-23T09:11:22;7.35;;;6.78;;
46713;SDS011;32445;51.376;10.874;2022-07-23T09:14:39;6.37;;;5.97;;
46713;SDS011;32445;51.376;10.874;2022-07-23T09:17:44;7.35;;;6.75;;
46713;SDS011;32445;51.376;10.874;2022-07-23T09:20:45;6.80;;;6.30;;
46713;SDS011;32445;51.376;10.874;2022-07-23T09:26:48;7.22;;;6.72;;
46713;SDS011;32445;51.376;10.874;2022-07-23T09:29:55;6.65;;;6.15;;
46713;SDS011;32445;51.376;10.874;2022-07-23T09:33:03;7.03;;;6.53;;
46713;SDS011;32445;51.376;10.874;2022-07-23T09:36:04;6.03;;;5.50;;
46713;SDS011;32445;51.376;10.874;2022-07-23T09:39:05;7.80;;;7.10;;
46713;SDS011;32445;51.376;10.874;2022-07-23T09:42:13;7.80;;;7.30;;
46713;SDS011;32445;51.376;10.874;2022-07-23T09:45:19;6.85;;;6.35;;
46713;SDS011;32445;51.376;10.874;2022-07-23T09:48:21;7.50;;;6.77;;
46713;SDS011;32445;51.376;10.874;2022-07-23T09:51:23;8.85;;;7.28;;
46713;SDS011;32445;51.376;10.874;2022-07-23T09:57:33;8.38;;;7.50;;
46713;SDS011;32445;51.376;10.874;2022-07-23T10:00:34;7.68;;;7.18;;
46713;SDS011;32445;51.376;10.874;2022-07-23T10:03:35;6.70;;;6.10;;
46713;SDS011;32445;51.376;10.874;2022-07-23T10:06:36;6.43;;;5.95;;
46713;SDS011;32445;51.376;10.874;2022-07-23T10:09:40;6.47;;;5.97;;
46713;SDS011;32445;51.376;10.874;2022-07-23T10:12:43;5.35;;;4.85;;
46713;SDS011;32445;51.376;10.874;2022-07-23T10:16:04;4.35;;;3.97;;
46713;SDS011;32445;51.376;10.874;2022-07-23T10:19:04;3.83;;;3.45;;
46713;SDS011;32445;51.376;10.874;2022-07-23T10:22:09;5.88;;;3.33;;
46713;SDS011;32445;51.376;10.874;2022-07-23T10:28:40;4.03;;;3.67;;
46713;SDS011;32445;51.376;10.874;2022-07-23T10:38:31;4.13;;;3.55;;
46713;SDS011;32445;51.376;10.874;2022-07-23T10:42:12;4.78;;;4.38;;
46713;SDS011;32445;51.376;10.874;2022-07-23T10:48:28;4.72;;;4.32;;
46713;SDS011;32445;51.376;10.874;2022-07-23T10:51:29;4.60;;;4.20;;
46713;SDS011;32445;51.376;10.874;2022-07-23T10:54:30;4.65;;;4.25;;
46713;SDS011;32445;51.376;10.874;2022-07-23T10:57:30;4.53;;;4.00;;
46713;SDS011;32445;51.376;10.874;2022-07-23T11:00:31;4.80;;;4.27;;
46713;SDS011;32445;51.376;10.874;2022-07-23T11:03:34;5.90;;;4.25;;
46713;SDS011;32445;51.376;10.874;2022-07-23T11:09:48;5.13;;;3.92;;
46713;SDS011;32445;51.376;10.874;2022-07-23T11:12:48;9.48;;;4.57;;
46713;SDS011;32445;51.376;10.874;2022-07-23T11:19:03;5.20;;;3.72;;
46713;SDS011;32445;51.376;10.874;2022-07-23T11:22:05;3.88;;;3.28;;
46713;SDS011;32445;51.376;10.874;2022-07-23T11:25:05;3.20;;;3.00;;
46713;SDS011;32445;51.376;10.874;2022-07-23T11:28:10;8.07;;;3.10;;
46713;SDS011;32445;51.376;10.874;2022-07-23T11:31:16;3.60;;;2.97;;
46713;SDS011;32445;51.376;10.874;2022-07-23T11:34:51;4.03;;;2.45;;
46713;SDS011;32445;51.376;10.874;2022-07-23T11:37:47;3.10;;;2.60;;
46713;SDS011;32445;51.376;10.874;2022-07-23T11:40:53;4.18;;;3.17;;
46713;SDS011;32445;51.376;10.874;2022-07-23T11:43:57;6.10;;;3.10;;
46713;SDS011;32445;51.376;10.874;2022-07-23T11:50:08;4.57;;;2.00;;
46713;SDS011;32445;51.376;10.874;2022-07-23T11:56:10;3.80;;;2.17;;
46713;SDS011;32445;51.376;10.874;2022-07-23T11:59:11;4.32;;;2.17;;
46713;SDS011;32445;51.376;10.874;2022-07-23T12:02:13;2.90;;;2.22;;
46713;SDS011;32445;51.376;10.874;2022-07-23T12:08:15;3.20;;;1.95;;
46713;SDS011;32445;51.376;10.874;2022-07-23T12:14:15;2.57;;;2.37;;
46713;SDS011;32445;51.376;10.874;2022-07-23T12:17:16;3.42;;;1.58;;
46713;SDS011;32445;51.376;10.874;2022-07-23T12:20:17;1.95;;;1.75;;
46713;SDS011;32445;51.376;10.874;2022-07-23T12:23:22;2.53;;;1.83;;
46713;SDS011;32445;51.376;10.874;2022-07-23T12:26:23;2.92;;;1.98;;
46713;SDS011;32445;51.376;10.874;2022-07-23T12:29:33;2.50;;;1.55;;
46713;SDS011;32445;51.376;10.874;2022-07-23T12:32:35;3.67;;;2.10;;
46713;SDS011;32445;51.376;10.874;2022-07-23T12:35:45;2.25;;;1.95;;
46713;SDS011;32445;51.376;10.874;2022-07-23T12:38:47;2.20;;;2.00;;
46713;SDS011;32445;51.376;10.874;2022-07-23T12:41:51;2.83;;;2.60;;
46713;SDS011;32445;51.376;10.874;2022-07-23T12:45:09;3.33;;;1.98;;
46713;SDS011;32445;51.376;10.874;2022-07-23T12:48:22;2.67;;;2.42;;
46713;SDS011;32445;51.376;10.874;2022-07-23T12:51:36;2.22;;;2.03;;
46713;SDS011;32445;51.376;10.874;2022-07-23T12:54:39;8.73;;;2.25;;
46713;SDS011;32445;51.376;10.874;2022-07-23T12:57:46;3.55;;;1.63;;
46713;SDS011;32445;51.376;10.874;2022-07-23T13:06:57;4.85;;;1.88;;
46713;SDS011;32445;51.376;10.874;2022-07-23T13:10:01;2.75;;;2.10;;
46713;SDS011;32445;51.376;10.874;2022-07-23T13:13:01;3.50;;;2.33;;
46713;SDS011;32445;51.376;10.874;2022-07-23T13:16:02;2.35;;;2.13;;
46713;SDS011;32445;51.376;10.874;2022-07-23T13:19:03;3.03;;;1.83;;
46713;SDS011;32445;51.376;10.874;2022-07-23T13:22:03;2.08;;;1.88;;
46713;SDS011;32445;51.376;10.874;2022-07-23T13:25:03;2.45;;;2.25;;
46713;SDS011;32445;51.376;10.874;2022-07-23T13:28:04;5.43;;;2.05;;
46713;SDS011;32445;51.376;10.874;2022-07-23T13:31:07;1.67;;;1.48;;
46713;SDS011;32445;51.376;10.874;2022-07-23T13:34:08;5.07;;;2.03;;
46713;SDS011;32445;51.376;10.874;2022-07-23T13:37:08;1.85;;;1.70;;
46713;SDS011;32445;51.376;10.874;2022-07-23T13:40:09;1.98;;;1.80;;
46713;SDS011;32445;51.376;10.874;2022-07-23T13:43:10;2.85;;;1.95;;
46713;SDS011;32445;51.376;10.874;2022-07-23T13:46:11;4.25;;;1.48;;
46713;SDS011;32445;51.376;10.874;2022-07-23T13:49:12;2.58;;;1.98;;
46713;SDS011;32445;51.376;10.874;2022-07-23T13:52:12;1.75;;;1.50;;
46713;SDS011;32445;51.376;10.874;2022-07-23T13:55:13;3.90;;;1.63;;
46713;SDS011;32445;51.376;10.874;2022-07-23T13:58:13;2.97;;;1.45;;
46713;SDS011;32445;51.376;10.874;2022-07-23T14:01:13;2.50;;;1.75;;
46713;SDS011;32445;51.376;10.874;2022-07-23T14:04:14;4.05;;;1.55;;
46713;SDS011;32445;51.376;10.874;2022-07-23T14:07:15;2.53;;;1.88;;
46713;SDS011;32445;51.376;10.874;2022-07-23T14:10:16;1.63;;;1.52;;
46713;SDS011;32445;51.376;10.874;2022-07-23T14:13:18;4.80;;;1.58;;
46713;SDS011;32445;51.376;10.874;2022-07-23T14:16:19;3.35;;;1.35;;
46713;SDS011;32445;51.376;10.874;2022-07-23T14:19:19;2.05;;;1.85;;
46713;SDS011;32445;51.376;10.874;2022-07-23T14:22:20;1.65;;;1.38;;
46713;SDS011;32445;51.376;10.874;2022-07-23T14:25:20;2.15;;;1.70;;
46713;SDS011;32445;51.376;10.874;2022-07-23T14:28:20;2.22;;;1.58;;
46713;SDS011;32445;51.376;10.874;2022-07-23T14:31:21;3.30;;;1.42;;
46713;SDS011;32445;51.376;10.874;2022-07-23T14:34:22;2.20;;;1.15;;
46713;SDS011;32445;51.376;10.874;2022-07-23T14:37:23;2.28;;;1.50;;
46713;SDS011;32445;51.376;10.874;2022-07-23T14:40:24;2.72;;;2.05;;
46713;SDS011;32445;51.376;10.874;2022-07-23T14:43:25;4.90;;;1.75;;
46713;SDS011;32445;51.376;10.874;2022-07-23T14:46:25;2.63;;;1.33;;
46713;SDS011;32445;51.376;10.874;2022-07-23T14:49:27;1.58;;;1.38;;
46713;SDS011;32445;51.376;10.874;2022-07-23T14:52:27;4.40;;;1.77;;
46713;SDS011;32445;51.376;10.874;2022-07-23T14:55:28;2.45;;;1.92;;
46713;SDS011;32445;51.376;10.874;2022-07-23T14:58:28;2.78;;;1.25;;
46713;SDS011;32445;51.376;10.874;2022-07-23T15:01:29;1.92;;;1.27;;
46713;SDS011;32445;51.376;10.874;2022-07-23T15:04:29;2.13;;;1.38;;
46713;SDS011;32445;51.376;10.874;2022-07-23T15:07:30;3.00;;;1.70;;
46713;SDS011;32445;51.376;10.874;2022-07-23T15:10:30;2.45;;;1.55;;
46713;SDS011;32445;51.376;10.874;2022-07-23T15:13:30;3.30;;;1.92;;
46713;SDS011;32445;51.376;10.874;2022-07-23T15:16:31;2.13;;;1.67;;
46713;SDS011;32445;51.376;10.874;2022-07-23T15:19:32;3.53;;;1.88;;
46713;SDS011;32445;51.376;10.874;2022-07-23T15:22:32;3.13;;;1.30;;
46713;SDS011;32445;51.376;10.874;2022-07-23T15:25:32;1.77;;;1.20;;
46713;SDS011;32445;51.376;10.874;2022-07-23T15:28:33;2.17;;;1.35;;
46713;SDS011;32445;51.376;10.874;2022-07-23T15:31:35;1.42;;;1.30;;
46713;SDS011;32445;51.376;10.874;2022-07-23T15:34:35;2.60;;;1.42;;
46713;SDS011;32445;51.376;10.874;2022-07-23T15:37:36;2.17;;;1.25;;
46713;SDS011;32445;51.376;10.874;2022-07-23T15:40:36;2.38;;;1.75;;
46713;SDS011;32445;51.376;10.874;2022-07-23T15:43:36;2.03;;;1.00;;
46713;SDS011;32445;51.376;10.874;2022-07-23T15:46:37;3.45;;;1.52;;
46713;SDS011;32445;51.376;10.874;2022-07-23T15:49:37;2.05;;;1.15;;
46713;SDS011;32445;51.376;10.874;2022-07-23T15:52:38;1.58;;;1.10;;
46713;SDS011;32445;51.376;10.874;2022-07-23T15:55:38;2.97;;;1.85;;
46713;SDS011;32445;51.376;10.874;2022-07-23T15:58:39;3.95;;;1.20;;
46713;SDS011;32445;51.376;10.874;2022-07-23T16:01:40;1.35;;;1.17;;
46713;SDS011;32445;51.376;10.874;2022-07-23T16:04:40;5.22;;;1.33;;
46713;SDS011;32445;51.376;10.874;2022-07-23T16:07:40;1.15;;;1.00;;
46713;SDS011;32445;51.376;10.874;2022-07-23T16:10:41;1.33;;;1.17;;
46713;SDS011;32445;51.376;10.874;2022-07-23T16:13:41;3.13;;;1.13;;
46713;SDS011;32445;51.376;10.874;2022-07-23T16:16:42;3.13;;;1.15;;
46713;SDS011;32445;51.376;10.874;2022-07-23T16:19:42;1.38;;;1.10;;
46713;SDS011;32445;51.376;10.874;2022-07-23T16:22:43;2.53;;;1.52;;
46713;SDS011;32445;51.376;10.874;2022-07-23T16:25:43;2.20;;;1.13;;
46713;SDS011;32445;51.376;10.874;2022-07-23T16:28:43;3.80;;;1.40;;
46713;SDS011;32445;51.376;10.874;2022-07-23T16:31:44;2.47;;;1.10;;
46713;SDS011;32445;51.376;10.874;2022-07-23T16:34:44;4.28;;;1.30;;
46713;SDS011;32445;51.376;10.874;2022-07-23T16:37:44;1.02;;;0.95;;
46713;SDS011;32445;51.376;10.874;2022-07-23T16:40:45;1.75;;;1.10;;
46713;SDS011;32445;51.376;10.874;2022-07-23T16:43:45;1.83;;;0.88;;
46713;SDS011;32445;51.376;10.874;2022-07-23T16:46:46;0.80;;;0.80;;
46713;SDS011;32445;51.376;10.874;2022-07-23T16:49:46;0.80;;;0.80;;
46713;SDS011;32445;51.376;10.874;2022-07-23T16:52:47;4.25;;;1.25;;
46713;SDS011;32445;51.376;10.874;2022-07-23T16:55:47;2.45;;;1.00;;
46713;SDS011;32445;51.376;10.874;2022-07-23T16:58:48;2.05;;;1.30;;
46713;SDS011;32445;51.376;10.874;2022-07-23T17:01:49;2.50;;;1.52;;
46713;SDS011;32445;51.376;10.874;2022-07-23T17:04:50;4.32;;;1.00;;
46713;SDS011;32445;51.376;10.874;2022-07-23T17:07:50;2.42;;;1.00;;
46713;SDS011;32445;51.376;10.874;2022-07-23T17:10:53;2.53;;;1.00;;
46713;SDS011;32445;51.376;10.874;2022-07-23T17:13:53;1.55;;;1.17;;
46713;SDS011;32445;51.376;10.874;2022-07-23T17:16:54;1.42;;;0.95;;
46713;SDS011;32445;51.376;10.874;2022-07-23T17:19:55;3.63;;;1.00;;
46713;SDS011;32445;51.376;10.874;2022-07-23T17:22:55;0.82;;;0.80;;
46713;SDS011;32445;51.376;10.874;2022-07-23T17:25:56;1.20;;;0.77;;
46713;SDS011;32445;51.376;10.874;2022-07-23T17:28:56;0.82;;;0.80;;
46713;SDS011;32445;51.376;10.874;2022-07-23T17:31:56;3.60;;;1.10;;
46713;SDS011;32445;51.376;10.874;2022-07-23T17:34:57;1.30;;;0.98;;
46713;SDS011;32445;51.376;10.874;2022-07-23T17:37:58;1.75;;;0.80;;
46713;SDS011;32445;51.376;10.874;2022-07-23T17:40:58;2.28;;;1.00;;
46713;SDS011;32445;51.376;10.874;2022-07-23T17:43:58;3.40;;;1.02;;
46713;SDS011;32445;51.376;10.874;2022-07-23T17:46:59;1.92;;;0.85;;
46713;SDS011;32445;51.376;10.874;2022-07-23T17:49:59;0.95;;;0.85;;
46713;SDS011;32445;51.376;10.874;2022-07-23T17:53:00;2.53;;;0.80;;
46713;SDS011;32445;51.376;10.874;2022-07-23T17:56:00;1.60;;;0.88;;
46713;SDS011;32445;51.376;10.874;2022-07-23T17:59:03;1.77;;;1.10;;
46713;SDS011;32445;51.376;10.874;2022-07-23T18:02:03;2.92;;;0.80;;
46713;SDS011;32445;51.376;10.874;2022-07-23T18:05:04;2.42;;;0.88;;
46713;SDS011;32445;51.376;10.874;2022-07-23T18:08:05;1.02;;;0.80;;
46713;SDS011;32445;51.376;10.874;2022-07-23T18:11:06;1.27;;;0.82;;
46713;SDS011;32445;51.376;10.874;2022-07-23T18:14:07;2.78;;;0.73;;
46713;SDS011;32445;51.376;10.874;2022-07-23T18:17:09;0.70;;;0.70;;
46713;SDS011;32445;51.376;10.874;2022-07-23T18:20:09;0.82;;;0.75;;
46713;SDS011;32445;51.376;10.874;2022-07-23T18:23:11;0.88;;;0.88;;
46713;SDS011;32445;51.376;10.874;2022-07-23T18:26:12;1.50;;;0.70;;
46713;SDS011;32445;51.376;10.874;2022-07-23T18:29:12;1.27;;;0.77;;
46713;SDS011;32445;51.376;10.874;2022-07-23T18:32:13;2.50;;;1.05;;
46713;SDS011;32445;51.376;10.874;2022-07-23T18:35:13;1.60;;;0.68;;
46713;SDS011;32445;51.376;10.874;2022-07-23T18:38:14;2.15;;;0.88;;
46713;SDS011;32445;51.376;10.874;2022-07-23T18:41:14;1.17;;;0.85;;